createdAt,value
2017-11-21T00:02:17.355Z,29.87
2017-11-21T00:04:44.223Z,30.67
2017-11-21T00:07:11.147Z,29.33
2017-11-21T00:09:38.297Z,29.17
2017-11-21T00:12:06.486Z,34.63
2017-11-21T00:14:33.399Z,32.00
2017-11-21T00:17:00.820Z,26.20
2017-11-21T00:19:27.661Z,25.80
2017-11-21T00:21:55.227Z,24.00
2017-11-21T00:24:22.731Z,25.30
2017-11-21T00:26:50.089Z,28.23
2017-11-21T00:29:17.492Z,26.53
2017-11-21T00:31:44.867Z,22.00
2017-11-21T00:34:12.740Z,21.97
2017-11-21T00:36:41.397Z,18.17
2017-11-21T00:39:09.088Z,27.23
2017-11-21T00:41:36.018Z,23.57
2017-11-21T00:44:03.629Z,22.30
2017-11-21T00:46:30.490Z,23.50
2017-11-21T00:48:58.578Z,20.70
2017-11-21T00:51:26.490Z,27.03
2017-11-21T00:53:54.149Z,26.10
2017-11-21T00:56:20.969Z,25.10
2017-11-21T00:58:47.790Z,25.60
2017-11-21T01:01:14.634Z,25.60
2017-11-21T01:03:41.574Z,24.17
2017-11-21T01:06:08.425Z,25.23
2017-11-21T01:08:35.986Z,27.70
2017-11-21T01:11:02.821Z,32.07
2017-11-21T01:13:29.617Z,37.87
2017-11-21T01:15:56.462Z,36.83
2017-11-21T01:18:23.299Z,43.70
2017-11-21T01:20:50.134Z,41.80
2017-11-21T01:23:17.017Z,43.07
2017-11-21T01:25:43.846Z,41.63
2017-11-21T01:28:11.445Z,48.20
2017-11-21T01:30:38.371Z,39.83
2017-11-21T01:33:06.043Z,42.60
2017-11-21T01:35:32.864Z,43.30
2017-11-21T01:37:59.726Z,45.67
2017-11-21T01:40:26.567Z,41.40
2017-11-21T01:42:53.392Z,40.83
2017-11-21T01:45:20.977Z,35.13
2017-11-21T01:47:48.559Z,35.00
2017-11-21T01:50:16.114Z,32.07
2017-11-21T01:52:42.967Z,27.50
2017-11-21T01:55:09.784Z,28.80
2017-11-21T01:57:36.606Z,26.47
2017-11-21T02:00:03.454Z,28.40
2017-11-21T02:02:30.279Z,26.43
2017-11-21T02:04:57.862Z,29.80
2017-11-21T02:07:24.697Z,28.37
2017-11-21T02:09:51.541Z,36.13
2017-11-21T02:12:19.112Z,31.37
2017-11-21T02:14:46.745Z,32.87
2017-11-21T02:17:13.588Z,39.70
2017-11-21T02:19:40.500Z,34.90
2017-11-21T02:22:08.114Z,35.37
2017-11-21T02:24:35.007Z,31.83
2017-11-21T02:27:01.905Z,31.83
2017-11-21T02:29:28.757Z,32.63
2017-11-21T02:31:55.665Z,30.33
2017-11-21T02:34:22.567Z,27.60
2017-11-21T02:36:49.447Z,29.17
2017-11-21T02:39:16.347Z,26.70
2017-11-21T02:41:43.255Z,29.17
2017-11-21T02:44:10.144Z,23.20
2017-11-21T02:46:37.745Z,21.40
2017-11-21T02:49:05.372Z,25.13
2017-11-21T02:51:32.339Z,27.53
2017-11-21T02:53:59.306Z,29.80
2017-11-21T02:56:26.181Z,29.67
2017-11-21T02:58:53.093Z,31.03
2017-11-21T03:01:19.981Z,34.10
2017-11-21T03:03:46.844Z,37.50
2017-11-21T03:06:13.691Z,35.97
2017-11-21T03:08:40.553Z,35.63
2017-11-21T03:11:07.423Z,40.30
2017-11-21T03:13:34.234Z,42.47
2017-11-21T03:16:01.912Z,42.50
2017-11-21T03:18:29.492Z,48.57
2017-11-21T03:21:15.366Z,55.63
2017-11-21T03:24:00.286Z,52.63
2017-11-21T03:26:27.167Z,53.17
2017-11-21T03:28:54.048Z,52.10
2017-11-21T03:31:20.917Z,54.27
2017-11-21T03:33:47.855Z,55.50
2017-11-21T03:36:14.734Z,55.70
2017-11-21T03:38:41.640Z,48.47
2017-11-21T03:41:09.209Z,48.87
2017-11-21T03:43:36.042Z,52.00
2017-11-21T03:46:02.957Z,53.93
2017-11-21T03:48:29.814Z,64.03
2017-11-21T03:50:56.692Z,64.50
2017-11-21T03:53:23.540Z,59.20
2017-11-21T03:55:50.415Z,63.73
2017-11-21T03:58:17.252Z,65.37
2017-11-21T04:00:59.813Z,68.60
2017-11-21T04:03:26.652Z,69.90
2017-11-21T04:05:53.582Z,64.40
2017-11-21T04:08:20.418Z,60.63
2017-11-21T04:10:47.284Z,66.43
2017-11-21T04:13:14.163Z,73.13
2017-11-21T04:15:41.011Z,72.37
2017-11-21T04:18:07.869Z,67.73
2017-11-21T04:20:34.713Z,67.33
2017-11-21T04:23:01.596Z,63.70
2017-11-21T04:25:28.483Z,63.00
2017-11-21T04:27:56.112Z,43.07
2017-11-21T04:30:22.977Z,52.17
2017-11-21T04:32:49.825Z,55.20
2017-11-21T04:35:16.665Z,47.63
2017-11-21T04:37:43.552Z,44.50
2017-11-21T04:40:10.395Z,47.43
2017-11-21T04:42:37.288Z,41.10
2017-11-21T04:45:04.130Z,32.27
2017-11-21T04:47:30.998Z,23.27
2017-11-21T04:49:57.850Z,22.13
2017-11-21T04:52:24.699Z,21.47
2017-11-21T04:54:51.539Z,15.47
2017-11-21T04:57:18.408Z,14.93
2017-11-21T04:59:46.004Z,14.50
2017-11-21T05:02:12.912Z,16.90
2017-11-21T05:04:39.739Z,18.00
2017-11-21T05:07:06.589Z,19.97
2017-11-21T05:09:33.481Z,16.90
2017-11-21T05:12:00.348Z,21.97
2017-11-21T05:14:27.169Z,27.40
2017-11-21T05:16:54.040Z,26.73
2017-11-21T05:19:20.891Z,31.60
2017-11-21T05:21:47.760Z,33.70
2017-11-21T05:24:14.674Z,37.13
2017-11-21T05:26:41.536Z,45.00
2017-11-21T05:29:08.432Z,49.63
2017-11-21T05:31:35.329Z,57.87
2017-11-21T05:34:02.162Z,63.50
2017-11-21T05:36:28.988Z,61.60
2017-11-21T05:38:55.864Z,67.47
2017-11-21T05:41:23.442Z,69.57
2017-11-21T05:43:51.900Z,70.47
2017-11-21T05:46:18.782Z,66.17
2017-11-21T05:48:45.633Z,67.10
2017-11-21T05:51:12.550Z,66.67
2017-11-21T05:53:39.452Z,62.53
2017-11-21T05:56:06.298Z,65.10
2017-11-21T05:58:33.227Z,55.10
2017-11-21T06:01:00.116Z,67.77
2017-11-21T06:03:26.954Z,64.57
2017-11-21T06:05:53.827Z,54.13
2017-11-21T06:08:20.699Z,60.20
2017-11-21T06:10:47.595Z,59.40
2017-11-21T06:13:14.456Z,64.57
2017-11-21T06:15:41.370Z,60.07
2017-11-21T06:18:08.242Z,64.93
2017-11-21T06:20:35.102Z,62.47
2017-11-21T06:23:01.953Z,63.47
2017-11-21T06:25:28.821Z,63.33
2017-11-21T06:27:57.985Z,65.63
2017-11-21T06:30:25.572Z,68.23
2017-11-21T06:32:52.423Z,62.70
2017-11-21T06:35:19.243Z,58.53
2017-11-21T06:37:48.491Z,57.60
2017-11-21T06:40:15.656Z,67.40
2017-11-21T06:42:42.584Z,55.67
2017-11-21T06:45:09.478Z,55.83
2017-11-21T06:47:36.355Z,56.37
2017-11-21T06:50:03.246Z,49.00
2017-11-21T06:52:30.093Z,50.00
2017-11-21T06:54:57.666Z,50.00
2017-11-21T06:57:24.534Z,48.50
2017-11-21T06:59:51.422Z,49.50
2017-11-21T07:02:18.267Z,52.57
2017-11-21T07:04:47.252Z,54.43
2017-11-21T07:07:14.101Z,49.20
2017-11-21T07:09:41.000Z,46.20
2017-11-21T07:12:08.601Z,83.63
2017-11-21T07:14:35.489Z,48.50
2017-11-21T07:17:02.354Z,47.93
2017-11-21T07:19:29.191Z,56.37
2017-11-21T07:21:56.044Z,56.20
2017-11-21T07:24:22.888Z,60.40
2017-11-21T07:26:50.549Z,52.63
2017-11-21T07:29:18.126Z,43.63
2017-11-21T07:31:45.008Z,45.90
2017-11-21T07:34:12.632Z,42.27
2017-11-21T07:36:39.497Z,40.43
2017-11-21T07:39:06.368Z,37.67
2017-11-21T07:41:33.251Z,38.23
2017-11-21T07:44:00.103Z,42.27
2017-11-21T07:46:26.977Z,31.17
2017-11-21T07:48:53.885Z,35.53
2017-11-21T07:51:20.766Z,42.63
2017-11-21T07:53:47.601Z,34.77
2017-11-21T07:56:14.452Z,36.40
2017-11-21T07:58:41.317Z,29.40
2017-11-21T08:01:08.180Z,29.10
2017-11-21T08:03:35.062Z,28.73
2017-11-21T08:06:01.970Z,24.33
2017-11-21T08:08:28.834Z,26.67
2017-11-21T08:10:55.780Z,23.90
2017-11-21T08:13:22.677Z,22.97
2017-11-21T08:15:50.345Z,16.93
2017-11-21T08:18:17.992Z,16.80
2017-11-21T08:20:44.871Z,20.30
2017-11-21T08:23:11.767Z,20.27
2017-11-21T08:25:38.673Z,14.53
2017-11-21T08:28:05.571Z,15.40
2017-11-21T08:30:32.450Z,14.70
2017-11-21T08:32:59.316Z,12.20
2017-11-21T08:35:26.207Z,13.57
2017-11-21T08:37:53.164Z,14.93
2017-11-21T08:40:20.057Z,13.23
2017-11-21T08:42:46.960Z,11.33
2017-11-21T08:45:13.815Z,11.40
2017-11-21T08:47:41.413Z,11.60
2017-11-21T08:50:08.278Z,9.57
2017-11-21T08:52:35.140Z,8.43
2017-11-21T08:55:02.008Z,6.67
2017-11-21T08:57:28.892Z,6.13
2017-11-21T08:59:55.743Z,5.60
2017-11-21T09:02:22.572Z,6.83
2017-11-21T09:04:50.162Z,4.67
2017-11-21T09:07:17.027Z,7.60
2017-11-21T09:09:43.908Z,32.93
2017-11-21T09:12:10.793Z,7.57
2017-11-21T09:14:37.682Z,4.70
2017-11-21T09:17:05.289Z,7.90
2017-11-21T09:19:32.133Z,6.07
2017-11-21T09:21:59.723Z,5.30
2017-11-21T09:24:26.580Z,7.17
2017-11-21T09:26:53.424Z,10.50
2017-11-21T09:29:21.012Z,26.17
2017-11-21T09:31:50.395Z,29.37
2017-11-21T09:34:17.525Z,11.60
2017-11-21T09:36:44.383Z,7.40
2017-11-21T09:39:11.243Z,5.03
2017-11-21T09:41:38.083Z,5.63
2017-11-21T09:44:05.646Z,5.07
2017-11-21T09:46:32.482Z,10.67
2017-11-21T09:48:59.306Z,6.77
2017-11-21T09:51:26.150Z,5.27
2017-11-21T09:53:52.989Z,6.30
2017-11-21T09:56:20.581Z,5.60
2017-11-21T09:58:48.179Z,4.47
2017-11-21T10:01:15.699Z,4.30
2017-11-21T10:03:42.536Z,4.47
2017-11-21T10:06:09.418Z,5.13
2017-11-21T10:08:36.315Z,5.30
2017-11-21T10:11:03.960Z,5.57
2017-11-21T10:13:30.824Z,5.30
2017-11-21T10:15:57.686Z,6.70
2017-11-21T10:18:24.578Z,6.33
2017-11-21T10:20:52.250Z,5.37
2017-11-21T10:23:19.146Z,6.20
2017-11-21T10:25:46.049Z,6.97
2017-11-21T10:28:12.915Z,6.23
2017-11-21T10:30:39.841Z,6.00
2017-11-21T10:33:06.773Z,6.53
2017-11-21T10:35:34.409Z,6.37
2017-11-21T10:38:01.290Z,5.20
2017-11-21T10:40:28.214Z,5.77
2017-11-21T10:42:55.096Z,7.47
2017-11-21T10:45:21.990Z,6.53
2017-11-21T10:47:48.859Z,7.20
2017-11-21T10:50:16.457Z,5.37
2017-11-21T10:52:43.301Z,6.10
2017-11-21T10:55:10.971Z,6.27
2017-11-21T10:57:37.942Z,5.10
2017-11-21T11:00:04.861Z,6.10
2017-11-21T11:02:31.830Z,10.43
2017-11-21T11:04:58.762Z,7.83
2017-11-21T11:07:25.693Z,9.53
2017-11-21T11:09:53.375Z,10.10
2017-11-21T11:12:21.904Z,11.53
2017-11-21T11:14:48.916Z,10.60
2017-11-21T11:17:15.855Z,15.73
2017-11-21T11:19:42.755Z,13.80
2017-11-21T11:22:09.639Z,14.53
2017-11-21T11:24:37.308Z,15.23
2017-11-21T11:27:04.938Z,16.83
2017-11-21T11:29:31.917Z,16.23
2017-11-21T11:31:58.845Z,15.37
2017-11-21T11:34:25.727Z,19.10
2017-11-21T11:36:52.603Z,17.63
2017-11-21T11:39:19.536Z,18.40
2017-11-21T11:41:46.418Z,19.50
2017-11-21T11:44:15.590Z,18.23
2017-11-21T11:46:42.473Z,19.93
2017-11-21T11:49:09.346Z,22.43
2017-11-21T11:51:36.961Z,16.90
2017-11-21T11:54:04.655Z,18.33
2017-11-21T11:56:31.597Z,15.53
2017-11-21T11:58:58.498Z,18.70
2017-11-21T12:01:26.242Z,16.77
2017-11-21T12:03:53.178Z,15.10
2017-11-21T12:06:20.124Z,15.80
2017-11-21T12:08:47.110Z,14.90
2017-11-21T12:11:14.028Z,14.33
2017-11-21T12:13:41.736Z,16.50
2017-11-21T12:16:10.160Z,13.67
2017-11-21T12:18:37.070Z,14.73
2017-11-21T12:21:04.763Z,12.43
2017-11-21T12:23:31.680Z,13.93
2017-11-21T12:25:58.586Z,13.00
2017-11-21T12:28:26.295Z,13.37
2017-11-21T12:30:53.309Z,11.57
2017-11-21T12:33:20.367Z,12.77
2017-11-21T12:35:47.338Z,12.07
2017-11-21T12:38:14.238Z,12.27
2017-11-21T12:40:41.452Z,10.80
2017-11-21T12:43:09.245Z,12.33
2017-11-21T12:45:36.204Z,11.47
2017-11-21T12:48:03.237Z,12.80
2017-11-21T12:50:30.186Z,11.57
2017-11-21T12:52:57.121Z,11.00
2017-11-21T12:55:25.388Z,9.37
2017-11-21T12:57:52.367Z,11.00
2017-11-21T13:00:21.314Z,8.90
2017-11-21T13:02:48.337Z,7.47
2017-11-21T13:05:15.254Z,13.07
2017-11-21T13:07:42.158Z,11.57
2017-11-21T13:10:09.127Z,10.17
2017-11-21T13:12:36.035Z,11.63
2017-11-21T13:15:02.977Z,19.70
2017-11-21T13:17:31.030Z,7.63
2017-11-21T13:19:57.958Z,16.93
2017-11-21T13:22:24.926Z,11.63
2017-11-21T13:24:51.842Z,16.47
2017-11-21T13:27:18.825Z,10.20
2017-11-21T13:29:46.507Z,18.83
2017-11-21T13:32:14.090Z,16.80
2017-11-21T13:34:41.730Z,12.57
2017-11-21T13:37:08.632Z,11.87
2017-11-21T13:39:36.413Z,26.80
2017-11-21T13:42:03.409Z,13.03
2017-11-21T13:44:30.436Z,42.50
2017-11-21T13:46:58.159Z,12.53
2017-11-21T13:49:25.107Z,10.60
2017-11-21T13:51:54.153Z,13.00
2017-11-21T13:54:21.201Z,20.63
2017-11-21T13:56:48.189Z,45.83
2017-11-21T13:59:15.162Z,34.23
2017-11-21T14:01:42.149Z,48.00
2017-11-21T14:04:09.170Z,16.20
2017-11-21T14:06:36.123Z,12.87
2017-11-21T14:09:03.093Z,19.90
2017-11-21T14:11:29.985Z,18.50
2017-11-21T14:13:56.906Z,15.60
2017-11-21T14:16:23.845Z,23.77
2017-11-21T14:18:50.894Z,20.90
2017-11-21T14:21:18.521Z,20.07
2017-11-21T14:23:45.415Z,16.03
2017-11-21T14:26:12.291Z,16.73
2017-11-21T14:28:39.943Z,14.80
2017-11-21T14:31:07.030Z,14.73
2017-11-21T14:33:34.170Z,15.23
2017-11-21T14:36:01.191Z,13.93
2017-11-21T14:38:28.131Z,16.23
2017-11-21T14:40:55.089Z,17.30
2017-11-21T14:43:22.031Z,18.13
2017-11-21T14:45:48.957Z,17.40
2017-11-21T14:48:15.873Z,19.17
2017-11-21T14:50:42.785Z,20.60
2017-11-21T14:53:09.635Z,22.10
2017-11-21T14:55:36.595Z,22.30
2017-11-21T14:58:04.549Z,19.90
2017-11-21T15:00:31.583Z,25.00
2017-11-21T15:02:58.511Z,19.73
2017-11-21T15:05:25.455Z,23.60
2017-11-21T15:07:54.784Z,19.83
2017-11-21T15:10:21.803Z,22.77
2017-11-21T15:12:48.706Z,21.17
2017-11-21T15:15:16.316Z,22.47
2017-11-21T15:17:52.290Z,21.90
2017-11-21T15:20:30.287Z,25.00
2017-11-21T15:22:57.245Z,21.43
2017-11-21T15:25:25.370Z,26.03
2017-11-21T15:27:52.359Z,23.17
2017-11-21T15:30:19.250Z,25.20
2017-11-21T15:32:46.926Z,25.37
2017-11-21T15:35:13.832Z,24.93
2017-11-21T15:37:45.748Z,25.03
2017-11-21T15:40:12.607Z,24.77
2017-11-21T15:42:39.479Z,25.10
2017-11-21T15:45:07.115Z,23.20
2017-11-21T15:47:33.982Z,28.33
2017-11-21T15:50:00.857Z,30.00
2017-11-21T15:52:27.821Z,27.27
2017-11-21T15:54:54.709Z,32.43
2017-11-21T15:57:21.596Z,30.13
2017-11-21T15:59:49.261Z,34.87
2017-11-21T16:02:16.127Z,32.70
2017-11-21T16:04:43.021Z,30.33
2017-11-21T16:07:09.997Z,39.63
2017-11-21T16:09:36.968Z,29.73
2017-11-21T16:12:03.902Z,30.47
2017-11-21T16:14:30.790Z,35.93
2017-11-21T16:16:57.693Z,36.07
2017-11-21T16:19:24.827Z,29.50
2017-11-21T16:21:51.744Z,31.63
2017-11-21T16:24:19.400Z,34.37
2017-11-21T16:26:46.252Z,34.30
2017-11-21T16:29:13.131Z,39.87
2017-11-21T16:31:39.974Z,30.60
2017-11-21T16:34:06.964Z,27.20
2017-11-21T16:36:33.809Z,27.60
2017-11-21T16:39:00.702Z,26.73
2017-11-21T16:41:28.353Z,24.60
2017-11-21T16:43:55.251Z,28.33
2017-11-21T16:46:22.102Z,32.13
2017-11-21T16:48:49.685Z,26.23
2017-11-21T16:51:17.249Z,24.33
2017-11-21T16:53:45.027Z,27.90
2017-11-21T16:56:12.113Z,30.00
2017-11-21T16:58:39.771Z,27.50
2017-11-21T17:01:06.662Z,30.20
2017-11-21T17:03:33.501Z,35.13
2017-11-21T17:06:00.433Z,30.30
2017-11-21T17:08:27.297Z,30.83
2017-11-21T17:10:54.246Z,26.70
2017-11-21T17:13:21.241Z,25.63
2017-11-21T17:15:48.161Z,29.70
2017-11-21T17:18:15.026Z,24.67
2017-11-21T17:20:41.930Z,30.10
2017-11-21T17:23:08.853Z,25.67
2017-11-21T17:25:35.728Z,26.53
2017-11-21T17:28:02.580Z,22.33
2017-11-21T17:30:29.445Z,24.83
2017-11-21T17:32:56.271Z,27.40
2017-11-21T17:35:23.117Z,24.40
2017-11-21T17:37:50.685Z,30.73
2017-11-21T17:40:17.588Z,25.80
2017-11-21T17:42:44.459Z,27.10
2017-11-21T17:45:11.386Z,23.40
2017-11-21T17:47:38.966Z,25.50
2017-11-21T17:50:06.576Z,24.93
2017-11-21T17:52:33.453Z,25.70
2017-11-21T17:55:00.439Z,27.60
2017-11-21T17:57:27.631Z,25.77
2017-11-21T17:59:55.243Z,25.37
2017-11-21T18:02:23.029Z,26.90
2017-11-21T18:04:51.041Z,29.10
2017-11-21T18:07:17.903Z,24.23
2017-11-21T18:09:44.801Z,24.77
2017-11-21T18:12:11.675Z,25.23
2017-11-21T18:14:39.649Z,22.80
2017-11-21T18:17:06.605Z,26.27
2017-11-21T18:19:33.628Z,23.47
2017-11-21T18:22:00.981Z,28.80
2017-11-21T18:24:28.352Z,20.80
2017-11-21T18:26:57.154Z,23.23
2017-11-21T18:29:24.048Z,21.80
2017-11-21T18:31:51.891Z,24.37
2017-11-21T18:34:19.659Z,27.10
2017-11-21T18:36:47.319Z,27.87
2017-11-21T18:39:14.300Z,25.37
2017-11-21T18:41:41.156Z,25.17
2017-11-21T18:44:08.507Z,21.30
2017-11-21T18:46:35.396Z,21.90
2017-11-21T18:49:02.266Z,21.90
2017-11-21T18:51:30.247Z,29.13
2017-11-21T18:53:57.856Z,24.87
2017-11-21T18:56:25.137Z,22.20
2017-11-21T18:58:51.981Z,24.93
2017-11-21T19:01:19.911Z,20.63
2017-11-21T19:03:47.312Z,22.30
2017-11-21T19:06:14.225Z,24.47
2017-11-21T19:08:41.385Z,24.30
2017-11-21T19:11:08.344Z,23.30
2017-11-21T19:13:35.626Z,26.23
2017-11-21T19:16:02.965Z,24.77
2017-11-21T19:18:29.841Z,23.57
2017-11-21T19:20:57.528Z,26.90
2017-11-21T19:23:24.535Z,26.77
2017-11-21T19:25:51.938Z,28.43
2017-11-21T19:28:19.578Z,29.47
2017-11-21T19:30:46.477Z,28.30
2017-11-21T19:33:13.490Z,26.93
2017-11-21T19:35:40.727Z,20.73
2017-11-21T19:38:07.740Z,22.07
2017-11-21T19:40:34.836Z,28.43
2017-11-21T19:43:02.421Z,29.23
2017-11-21T19:45:30.737Z,20.73
2017-11-21T19:47:58.536Z,22.77
2017-11-21T19:50:26.398Z,23.70
2017-11-21T19:52:53.367Z,19.97
2017-11-21T19:55:23.112Z,25.90
2017-11-21T19:57:51.259Z,21.03
2017-11-21T20:00:20.046Z,23.30
2017-11-21T20:02:48.964Z,18.17
2017-11-21T20:05:17.885Z,26.50
2017-11-21T20:07:46.556Z,19.13
2017-11-21T20:10:14.345Z,20.30
2017-11-21T20:12:42.259Z,19.63
2017-11-21T20:15:10.678Z,20.70
2017-11-21T20:17:37.706Z,24.50
2017-11-21T20:20:04.979Z,22.37
2017-11-21T20:22:31.947Z,22.50
2017-11-21T20:24:59.703Z,22.00
2017-11-21T20:27:27.685Z,21.00
2017-11-21T20:29:56.164Z,22.47
2017-11-21T20:32:27.881Z,21.63
2017-11-21T20:34:54.983Z,19.33
2017-11-21T20:37:23.549Z,18.23
2017-11-21T20:39:53.047Z,23.07
2017-11-21T20:42:22.510Z,22.10
2017-11-21T20:44:49.553Z,20.70
2017-11-21T20:47:17.238Z,17.10
2017-11-21T20:49:45.396Z,24.97
2017-11-21T20:52:14.248Z,16.77
2017-11-21T20:54:46.038Z,22.00
2017-11-21T20:57:14.115Z,17.67
2017-11-21T20:59:41.836Z,18.40
2017-11-21T21:02:08.860Z,16.90
2017-11-21T21:04:35.868Z,18.33
2017-11-21T21:07:03.471Z,19.43
2017-11-21T21:09:31.295Z,19.90
2017-11-21T21:11:58.180Z,15.83
2017-11-21T21:14:25.813Z,18.23
2017-11-21T21:16:52.728Z,19.40
2017-11-21T21:19:20.337Z,21.50
2017-11-21T21:21:47.240Z,21.83
2017-11-21T21:24:14.089Z,17.73
2017-11-21T21:26:41.012Z,20.17
2017-11-21T21:29:07.882Z,22.67
2017-11-21T21:31:34.741Z,21.77
2017-11-21T21:34:01.659Z,18.87
2017-11-21T21:36:29.402Z,16.40
2017-11-21T21:38:56.264Z,25.43
2017-11-21T21:41:23.074Z,19.87
2017-11-21T21:43:51.180Z,21.00
2017-11-21T21:46:18.101Z,19.33
2017-11-21T21:48:44.933Z,18.37
2017-11-21T21:51:11.800Z,19.43
2017-11-21T21:53:38.672Z,17.90
2017-11-21T21:56:05.557Z,19.03
2017-11-21T21:58:32.432Z,15.37
2017-11-21T22:00:59.856Z,17.10
2017-11-21T22:03:26.763Z,20.60
2017-11-21T22:05:53.598Z,18.23
2017-11-21T22:08:20.453Z,17.67
2017-11-21T22:10:47.289Z,16.03
2017-11-21T22:13:14.152Z,17.13
2017-11-21T22:15:40.973Z,18.20
2017-11-21T22:18:07.868Z,14.47
2017-11-21T22:20:34.663Z,15.03
2017-11-21T22:23:01.484Z,13.67
2017-11-21T22:25:28.373Z,12.70
2017-11-21T22:27:55.189Z,19.73
2017-11-21T22:30:23.246Z,12.27
2017-11-21T22:32:50.086Z,16.53
2017-11-21T22:35:16.909Z,13.90
2017-11-21T22:37:44.473Z,15.90
2017-11-21T22:40:12.091Z,11.53
2017-11-21T22:42:38.963Z,13.90
2017-11-21T22:45:05.825Z,18.20
2017-11-21T22:47:34.677Z,14.33
2017-11-21T22:50:01.603Z,16.90
2017-11-21T22:52:28.472Z,16.07
2017-11-21T22:54:56.154Z,14.20
2017-11-21T22:57:26.077Z,13.00
2017-11-21T22:59:53.232Z,15.83
2017-11-21T23:02:20.084Z,12.30
2017-11-21T23:04:47.000Z,15.93
2017-11-21T23:07:13.914Z,11.70
2017-11-21T23:09:40.804Z,12.00
2017-11-21T23:12:07.676Z,12.33
2017-11-21T23:14:34.565Z,13.93
2017-11-21T23:17:02.127Z,17.50
2017-11-21T23:19:29.225Z,12.00
2017-11-21T23:21:56.174Z,16.43
2017-11-21T23:24:23.774Z,11.60
2017-11-21T23:26:50.798Z,12.17
2017-11-21T23:29:18.578Z,13.90
2017-11-21T23:31:46.136Z,13.10
2017-11-21T23:34:16.103Z,10.90
2017-11-21T23:36:43.550Z,14.97
2017-11-21T23:39:11.209Z,11.53
2017-11-21T23:41:38.140Z,13.27
2017-11-21T23:44:05.625Z,13.67
2017-11-21T23:46:33.229Z,11.73
2017-11-21T23:49:01.884Z,12.67
2017-11-21T23:51:29.595Z,10.57
2017-11-21T23:53:56.421Z,10.67
2017-11-21T23:56:24.001Z,12.43
2017-11-21T23:58:51.608Z,11.87
